sensor_id;sensor_type;location;lat;lon;timestamp;pressure;altitude;pressure_sealevel;temperature;humidity
80976;BME280;70437;49.466;11.002;2023-07-16T00:01:03;97883.56;;;20.34;86.19
80976;BME280;70437;49.466;11.002;2023-07-16T00:03:31;97883.69;;;20.43;84.76
80976;BME280;70437;49.466;11.002;2023-07-16T00:05:59;97877.84;;;20.36;85.08
80976;BME280;70437;49.466;11.002;2023-07-16T00:08:27;97869.94;;;20.34;85.23
80976;BME280;70437;49.466;11.002;2023-07-16T00:10:55;97857.91;;;20.40;85.64
80976;BME280;70437;49.466;11.002;2023-07-16T00:13:23;97869.66;;;20.36;85.05
80976;BME280;70437;49.466;11.002;2023-07-16T00:15:51;97868.69;;;20.27;85.56
80976;BME280;70437;49.466;11.002;2023-07-16T00:18:19;97859.88;;;20.16;85.91
80976;BME280;70437;49.466;11.002;2023-07-16T00:20:46;97870.66;;;20.21;85.62
80976;BME280;70437;49.466;11.002;2023-07-16T00:23:14;97865.88;;;20.13;85.93
80976;BME280;70437;49.466;11.002;2023-07-16T00:25:45;97860.81;;;20.06;86.22
80976;BME280;70437;49.466;11.002;2023-07-16T00:28:13;97857.72;;;20.13;85.09
80976;BME280;70437;49.466;11.002;2023-07-16T00:30:41;97880.97;;;20.24;84.79
80976;BME280;70437;49.466;11.002;2023-07-16T00:33:10;97900.59;;;20.21;84.56
80976;BME280;70437;49.466;11.002;2023-07-16T00:35:39;97911.69;;;20.25;85.23
80976;BME280;70437;49.466;11.002;2023-07-16T00:38:09;97896.81;;;20.17;86.00
80976;BME280;70437;49.466;11.002;2023-07-16T00:40:36;97902.28;;;20.17;85.58
80976;BME280;70437;49.466;11.002;2023-07-16T00:43:05;97899.47;;;20.22;85.79
80976;BME280;70437;49.466;11.002;2023-07-16T00:45:34;97920.00;;;20.14;86.10
80976;BME280;70437;49.466;11.002;2023-07-16T00:48:05;97930.06;;;20.14;85.58
80976;BME280;70437;49.466;11.002;2023-07-16T00:50:38;97939.91;;;20.10;86.22
80976;BME280;70437;49.466;11.002;2023-07-16T00:53:09;97943.50;;;20.05;86.39
80976;BME280;70437;49.466;11.002;2023-07-16T00:55:38;97962.28;;;20.02;86.40
80976;BME280;70437;49.466;11.002;2023-07-16T00:58:07;97970.75;;;20.00;86.58
80976;BME280;70437;49.466;11.002;2023-07-16T01:00:36;98000.00;;;20.08;86.86
80976;BME280;70437;49.466;11.002;2023-07-16T01:03:12;98001.47;;;19.95;87.82
80976;BME280;70437;49.466;11.002;2023-07-16T01:08:41;97989.53;;;19.97;87.35
80976;BME280;70437;49.466;11.002;2023-07-16T01:11:10;98002.53;;;20.00;86.47
80976;BME280;70437;49.466;11.002;2023-07-16T01:13:39;97996.59;;;19.98;86.96
80976;BME280;70437;49.466;11.002;2023-07-16T01:16:23;97999.63;;;19.91;86.75
80976;BME280;70437;49.466;11.002;2023-07-16T01:18:53;98005.91;;;19.91;85.94
80976;BME280;70437;49.466;11.002;2023-07-16T01:21:27;98015.94;;;19.91;85.84
80976;BME280;70437;49.466;11.002;2023-07-16T01:29:45;98021.09;;;19.58;86.15
80976;BME280;70437;49.466;11.002;2023-07-16T01:32:17;98028.34;;;19.39;86.44
80976;BME280;70437;49.466;11.002;2023-07-16T01:34:45;98025.13;;;19.32;86.54
80976;BME280;70437;49.466;11.002;2023-07-16T01:37:14;98032.78;;;19.19;86.53
80976;BME280;70437;49.466;11.002;2023-07-16T01:39:43;98033.97;;;19.08;87.30
80976;BME280;70437;49.466;11.002;2023-07-16T01:42:12;98013.91;;;19.04;87.73
80976;BME280;70437;49.466;11.002;2023-07-16T01:44:42;98003.84;;;19.05;87.75
80976;BME280;70437;49.466;11.002;2023-07-16T01:47:13;97998.97;;;19.02;87.64
80976;BME280;70437;49.466;11.002;2023-07-16T01:49:43;98020.91;;;19.10;87.36
80976;BME280;70437;49.466;11.002;2023-07-16T01:52:12;98019.28;;;19.09;87.49
80976;BME280;70437;49.466;11.002;2023-07-16T01:54:40;98006.00;;;19.08;87.33
80976;BME280;70437;49.466;11.002;2023-07-16T01:57:07;98004.41;;;19.07;87.32
80976;BME280;70437;49.466;11.002;2023-07-16T02:01:29;97990.69;;;19.22;86.78
80976;BME280;70437;49.466;11.002;2023-07-16T02:03:58;97996.72;;;19.14;87.38
80976;BME280;70437;49.466;11.002;2023-07-16T02:06:26;97999.69;;;19.17;88.29
80976;BME280;70437;49.466;11.002;2023-07-16T02:08:54;97998.03;;;19.22;87.90
80976;BME280;70437;49.466;11.002;2023-07-16T02:11:24;97993.16;;;19.18;88.14
80976;BME280;70437;49.466;11.002;2023-07-16T02:13:57;97992.09;;;19.14;88.16
80976;BME280;70437;49.466;11.002;2023-07-16T02:16:25;97981.44;;;19.23;88.24
80976;BME280;70437;49.466;11.002;2023-07-16T02:18:54;97981.19;;;19.19;87.67
80976;BME280;70437;49.466;11.002;2023-07-16T02:21:22;97990.44;;;19.18;87.89
80976;BME280;70437;49.466;11.002;2023-07-16T02:23:50;98011.91;;;19.15;88.00
80976;BME280;70437;49.466;11.002;2023-07-16T02:26:18;98020.09;;;19.10;88.89
80976;BME280;70437;49.466;11.002;2023-07-16T02:28:47;98013.59;;;19.11;88.40
80976;BME280;70437;49.466;11.002;2023-07-16T02:31:15;98008.72;;;19.08;88.12
80976;BME280;70437;49.466;11.002;2023-07-16T02:33:42;98012.00;;;19.05;88.61
80976;BME280;70437;49.466;11.002;2023-07-16T02:36:10;98006.31;;;19.01;88.80
80976;BME280;70437;49.466;11.002;2023-07-16T02:38:41;97977.25;;;19.02;88.06
80976;BME280;70437;49.466;11.002;2023-07-16T02:41:09;97996.06;;;18.93;88.60
80976;BME280;70437;49.466;11.002;2023-07-16T02:43:37;98006.38;;;18.91;89.07
80976;BME280;70437;49.466;11.002;2023-07-16T02:46:05;98004.47;;;18.91;89.21
80976;BME280;70437;49.466;11.002;2023-07-16T02:48:33;98009.63;;;18.93;88.47
80976;BME280;70437;49.466;11.002;2023-07-16T02:51:03;98041.16;;;18.89;89.34
80976;BME280;70437;49.466;11.002;2023-07-16T02:53:31;98045.19;;;18.91;88.82
80976;BME280;70437;49.466;11.002;2023-07-16T02:56:00;98049.00;;;18.90;88.87
80976;BME280;70437;49.466;11.002;2023-07-16T02:58:29;98054.13;;;18.92;88.51
80976;BME280;70437;49.466;11.002;2023-07-16T03:00:58;98046.56;;;18.89;88.55
80976;BME280;70437;49.466;11.002;2023-07-16T03:03:26;98044.41;;;18.86;89.03
80976;BME280;70437;49.466;11.002;2023-07-16T03:06:02;98030.28;;;18.84;87.87
80976;BME280;70437;49.466;11.002;2023-07-16T03:08:31;98022.22;;;18.74;88.91
80976;BME280;70437;49.466;11.002;2023-07-16T03:11:01;98029.25;;;18.75;88.77
80976;BME280;70437;49.466;11.002;2023-07-16T03:13:30;98032.25;;;18.73;87.58
80976;BME280;70437;49.466;11.002;2023-07-16T03:15:59;98037.13;;;18.76;87.69
80976;BME280;70437;49.466;11.002;2023-07-16T03:18:30;98056.97;;;18.72;88.22
80976;BME280;70437;49.466;11.002;2023-07-16T03:21:00;98071.06;;;18.74;87.99
80976;BME280;70437;49.466;11.002;2023-07-16T03:23:27;98077.88;;;18.71;88.08
80976;BME280;70437;49.466;11.002;2023-07-16T03:25:56;98076.75;;;18.67;87.91
80976;BME280;70437;49.466;11.002;2023-07-16T03:28:24;98072.16;;;18.67;87.18
80976;BME280;70437;49.466;11.002;2023-07-16T03:30:53;98081.09;;;18.73;85.10
80976;BME280;70437;49.466;11.002;2023-07-16T03:33:23;98061.59;;;18.71;85.47
80976;BME280;70437;49.466;11.002;2023-07-16T03:35:51;98044.72;;;18.74;84.66
80976;BME280;70437;49.466;11.002;2023-07-16T03:38:21;98056.41;;;18.69;83.26
80976;BME280;70437;49.466;11.002;2023-07-16T03:40:49;98070.78;;;18.70;84.58
80976;BME280;70437;49.466;11.002;2023-07-16T03:43:17;98068.88;;;18.65;83.63
80976;BME280;70437;49.466;11.002;2023-07-16T03:45:46;98070.53;;;18.66;84.48
80976;BME280;70437;49.466;11.002;2023-07-16T03:48:15;98082.19;;;18.67;83.23
80976;BME280;70437;49.466;11.002;2023-07-16T03:50:43;98074.06;;;18.62;83.53
80976;BME280;70437;49.466;11.002;2023-07-16T03:53:12;98076.25;;;18.60;82.75
80976;BME280;70437;49.466;11.002;2023-07-16T03:55:42;98073.00;;;18.58;83.33
80976;BME280;70437;49.466;11.002;2023-07-16T03:58:11;98087.09;;;18.55;84.16
80976;BME280;70437;49.466;11.002;2023-07-16T04:00:41;98093.38;;;18.50;83.57
80976;BME280;70437;49.466;11.002;2023-07-16T04:03:10;98097.97;;;18.55;83.44
80976;BME280;70437;49.466;11.002;2023-07-16T04:05:38;98105.28;;;18.54;82.91
80976;BME280;70437;49.466;11.002;2023-07-16T04:08:07;98116.69;;;18.51;83.33
80976;BME280;70437;49.466;11.002;2023-07-16T04:10:37;98130.56;;;18.44;83.07
80976;BME280;70437;49.466;11.002;2023-07-16T04:13:06;98124.31;;;18.44;83.67
80976;BME280;70437;49.466;11.002;2023-07-16T04:15:33;98134.06;;;18.45;84.43
80976;BME280;70437;49.466;11.002;2023-07-16T04:18:04;98147.06;;;18.53;84.95
80976;BME280;70437;49.466;11.002;2023-07-16T04:20:31;98144.63;;;18.52;83.74
80976;BME280;70437;49.466;11.002;2023-07-16T04:23:04;98134.91;;;18.40;83.37
80976;BME280;70437;49.466;11.002;2023-07-16T04:25:32;98147.91;;;18.28;81.43
80976;BME280;70437;49.466;11.002;2023-07-16T04:28:03;98146.56;;;18.15;82.41
80976;BME280;70437;49.466;11.002;2023-07-16T04:30:32;98175.59;;;18.10;81.61
80976;BME280;70437;49.466;11.002;2023-07-16T04:33:03;98191.31;;;18.03;82.09
80976;BME280;70437;49.466;11.002;2023-07-16T04:35:32;98205.13;;;18.01;81.75
80976;BME280;70437;49.466;11.002;2023-07-16T04:38:03;98204.31;;;18.01;80.86
80976;BME280;70437;49.466;11.002;2023-07-16T04:40:31;98208.13;;;18.00;80.31
80976;BME280;70437;49.466;11.002;2023-07-16T04:42:59;98197.25;;;17.94;79.61
80976;BME280;70437;49.466;11.002;2023-07-16T04:45:26;98203.22;;;17.97;79.01
80976;BME280;70437;49.466;11.002;2023-07-16T04:47:54;98197.53;;;17.93;79.42
80976;BME280;70437;49.466;11.002;2023-07-16T04:50:24;98212.19;;;17.97;79.55
80976;BME280;70437;49.466;11.002;2023-07-16T04:52:55;98210.28;;;17.92;79.48
80976;BME280;70437;49.466;11.002;2023-07-16T04:55:22;98206.19;;;17.90;79.91
80976;BME280;70437;49.466;11.002;2023-07-16T04:57:50;98220.03;;;17.93;78.64
80976;BME280;70437;49.466;11.002;2023-07-16T05:00:22;98205.38;;;17.89;78.60
80976;BME280;70437;49.466;11.002;2023-07-16T05:02:49;98199.72;;;17.91;78.54
80976;BME280;70437;49.466;11.002;2023-07-16T05:05:17;98214.59;;;17.88;78.65
80976;BME280;70437;49.466;11.002;2023-07-16T05:07:45;98214.06;;;17.97;78.05
80976;BME280;70437;49.466;11.002;2023-07-16T05:10:13;98209.47;;;17.92;78.62
80976;BME280;70437;49.466;11.002;2023-07-16T05:12:41;98217.88;;;17.96;78.76
80976;BME280;70437;49.466;11.002;2023-07-16T05:15:09;98216.50;;;17.88;78.55
80976;BME280;70437;49.466;11.002;2023-07-16T05:17:38;98219.22;;;17.93;78.25
80976;BME280;70437;49.466;11.002;2023-07-16T05:20:08;98230.84;;;17.88;78.81
80976;BME280;70437;49.466;11.002;2023-07-16T05:22:37;98234.13;;;17.90;78.75
80976;BME280;70437;49.466;11.002;2023-07-16T05:25:05;98228.16;;;17.93;78.42
80976;BME280;70437;49.466;11.002;2023-07-16T05:27:35;98235.72;;;17.81;77.69
80976;BME280;70437;49.466;11.002;2023-07-16T05:30:06;98248.50;;;17.86;78.32
80976;BME280;70437;49.466;11.002;2023-07-16T05:32:35;98244.13;;;17.85;77.91
80976;BME280;70437;49.466;11.002;2023-07-16T05:35:05;98239.78;;;17.84;78.21
80976;BME280;70437;49.466;11.002;2023-07-16T05:37:33;98243.06;;;17.86;77.58
80976;BME280;70437;49.466;11.002;2023-07-16T05:40:03;98262.56;;;17.83;78.00
80976;BME280;70437;49.466;11.002;2023-07-16T05:42:31;98273.13;;;17.79;77.49
80976;BME280;70437;49.466;11.002;2023-07-16T05:44:58;98262.84;;;17.91;77.03
80976;BME280;70437;49.466;11.002;2023-07-16T05:47:28;98251.19;;;17.86;76.93
80976;BME280;70437;49.466;11.002;2023-07-16T05:49:57;98243.59;;;17.93;76.73
80976;BME280;70437;49.466;11.002;2023-07-16T05:52:26;98244.41;;;17.99;75.97
80976;BME280;70437;49.466;11.002;2023-07-16T05:54:55;98246.59;;;18.07;75.63
80976;BME280;70437;49.466;11.002;2023-07-16T05:57:23;98249.06;;;18.08;75.85
80976;BME280;70437;49.466;11.002;2023-07-16T05:59:51;98248.78;;;18.15;75.41
80976;BME280;70437;49.466;11.002;2023-07-16T06:02:23;98243.09;;;18.16;75.07
80976;BME280;70437;49.466;11.002;2023-07-16T06:04:51;98255.31;;;18.14;75.47
80976;BME280;70437;49.466;11.002;2023-07-16T06:07:21;98263.69;;;18.12;75.00
80976;BME280;70437;49.466;11.002;2023-07-16T06:09:49;98268.06;;;18.24;74.41
80976;BME280;70437;49.466;11.002;2023-07-16T06:12:18;98284.31;;;18.24;74.25
80976;BME280;70437;49.466;11.002;2023-07-16T06:14:46;98271.56;;;18.34;74.13
80976;BME280;70437;49.466;11.002;2023-07-16T06:17:14;98280.78;;;18.18;74.78
80976;BME280;70437;49.466;11.002;2023-07-16T06:19:43;98271.03;;;18.22;74.68
80976;BME280;70437;49.466;11.002;2023-07-16T06:22:13;98274.28;;;18.19;74.70
80976;BME280;70437;49.466;11.002;2023-07-16T06:24:41;98287.31;;;18.22;74.63
80976;BME280;70437;49.466;11.002;2023-07-16T06:27:08;98286.22;;;18.23;74.31
80976;BME280;70437;49.466;11.002;2023-07-16T06:29:37;98294.59;;;18.16;74.74
80976;BME280;70437;49.466;11.002;2023-07-16T06:32:06;98306.00;;;18.08;74.32
80976;BME280;70437;49.466;11.002;2023-07-16T06:34:34;98300.06;;;18.22;74.29
80976;BME280;70437;49.466;11.002;2023-07-16T06:37:03;98302.22;;;18.25;74.38
80976;BME280;70437;49.466;11.002;2023-07-16T06:39:31;98295.72;;;18.51;73.31
80976;BME280;70437;49.466;11.002;2023-07-16T06:42:01;98296.00;;;18.55;73.31
80976;BME280;70437;49.466;11.002;2023-07-16T06:44:31;98289.75;;;18.54;72.85
80976;BME280;70437;49.466;11.002;2023-07-16T06:47:00;98287.59;;;18.56;72.61
80976;BME280;70437;49.466;11.002;2023-07-16T06:49:31;98285.13;;;18.65;72.11
80976;BME280;70437;49.466;11.002;2023-07-16T06:52:00;98292.72;;;18.53;72.36
80976;BME280;70437;49.466;11.002;2023-07-16T06:54:29;98288.41;;;18.57;72.05
80976;BME280;70437;49.466;11.002;2023-07-16T06:56:57;98287.59;;;18.66;72.02
80976;BME280;70437;49.466;11.002;2023-07-16T06:59:25;98296.56;;;18.67;72.13
80976;BME280;70437;49.466;11.002;2023-07-16T07:01:53;98299.00;;;18.53;72.54
80976;BME280;70437;49.466;11.002;2023-07-16T07:04:24;98309.56;;;18.60;72.59
80976;BME280;70437;49.466;11.002;2023-07-16T07:06:52;98312.00;;;18.56;72.56
80976;BME280;70437;49.466;11.002;2023-07-16T07:09:19;98312.56;;;18.53;73.43
80976;BME280;70437;49.466;11.002;2023-07-16T07:11:47;98305.22;;;18.59;72.75
80976;BME280;70437;49.466;11.002;2023-07-16T07:14:16;98304.13;;;18.60;73.15
80976;BME280;70437;49.466;11.002;2023-07-16T07:16:44;98310.63;;;18.33;73.87
80976;BME280;70437;49.466;11.002;2023-07-16T07:19:12;98313.34;;;18.43;73.38
80976;BME280;70437;49.466;11.002;2023-07-16T07:21:41;98321.22;;;18.45;72.90
80976;BME280;70437;49.466;11.002;2023-07-16T07:24:08;98319.03;;;18.37;72.69
80976;BME280;70437;49.466;11.002;2023-07-16T07:26:36;98325.53;;;18.26;72.71
80976;BME280;70437;49.466;11.002;2023-07-16T07:29:04;98330.97;;;18.31;72.71
80976;BME280;70437;49.466;11.002;2023-07-16T07:31:32;98335.56;;;18.30;72.44
80976;BME280;70437;49.466;11.002;2023-07-16T07:34:01;98317.16;;;18.37;72.04
80976;BME280;70437;49.466;11.002;2023-07-16T07:36:32;98312.00;;;18.61;71.12
80976;BME280;70437;49.466;11.002;2023-07-16T07:39:01;98320.41;;;18.50;70.44
80976;BME280;70437;49.466;11.002;2023-07-16T07:41:28;98315.00;;;18.50;70.40
80976;BME280;70437;49.466;11.002;2023-07-16T07:43:56;98319.59;;;18.64;69.97
80976;BME280;70437;49.466;11.002;2023-07-16T07:46:25;98312.81;;;18.92;69.33
80976;BME280;70437;49.466;11.002;2023-07-16T07:48:54;98318.50;;;19.16;68.38
80976;BME280;70437;49.466;11.002;2023-07-16T07:51:22;98309.84;;;18.79;69.15
80976;BME280;70437;49.466;11.002;2023-07-16T07:53:50;98308.22;;;19.03;68.71
80976;BME280;70437;49.466;11.002;2023-07-16T07:56:18;98305.44;;;19.24;68.11
80976;BME280;70437;49.466;11.002;2023-07-16T07:58:49;98305.09;;;19.51;67.32
80976;BME280;70437;49.466;11.002;2023-07-16T08:01:17;98315.72;;;19.42;67.14
80976;BME280;70437;49.466;11.002;2023-07-16T08:03:46;98315.97;;;19.61;66.62
80976;BME280;70437;49.466;11.002;2023-07-16T08:06:16;98313.00;;;19.42;67.11
80976;BME280;70437;49.466;11.002;2023-07-16T08:08:45;98315.78;;;19.22;67.03
80976;BME280;70437;49.466;11.002;2023-07-16T08:11:15;98325.31;;;18.88;67.72
80976;BME280;70437;49.466;11.002;2023-07-16T08:13:43;98323.16;;;18.96;66.70
80976;BME280;70437;49.466;11.002;2023-07-16T08:16:13;98331.28;;;19.11;66.63
80976;BME280;70437;49.466;11.002;2023-07-16T08:18:42;98334.22;;;19.30;65.64
80976;BME280;70437;49.466;11.002;2023-07-16T08:21:10;98338.84;;;19.19;66.14
80976;BME280;70437;49.466;11.002;2023-07-16T08:23:45;98345.91;;;19.35;65.58
80976;BME280;70437;49.466;11.002;2023-07-16T08:26:14;98346.66;;;19.46;65.10
80976;BME280;70437;49.466;11.002;2023-07-16T08:28:43;98349.09;;;19.58;64.46
80976;BME280;70437;49.466;11.002;2023-07-16T08:31:12;98352.69;;;19.38;65.10
80976;BME280;70437;49.466;11.002;2023-07-16T08:33:44;98338.31;;;19.22;65.66
80976;BME280;70437;49.466;11.002;2023-07-16T08:36:12;98349.97;;;19.33;65.67
80976;BME280;70437;49.466;11.002;2023-07-16T08:38:41;98352.69;;;19.28;66.28
80976;BME280;70437;49.466;11.002;2023-07-16T08:41:09;98340.94;;;19.58;65.38
80976;BME280;70437;49.466;11.002;2023-07-16T08:43:38;98330.47;;;19.95;63.75
80976;BME280;70437;49.466;11.002;2023-07-16T08:46:09;98340.00;;;19.98;63.40
80976;BME280;70437;49.466;11.002;2023-07-16T08:48:38;98343.31;;;20.34;62.83
80976;BME280;70437;49.466;11.002;2023-07-16T08:53:00;98345.16;;;20.83;60.75
80976;BME280;70437;49.466;11.002;2023-07-16T08:55:28;98350.88;;;20.42;62.27
80976;BME280;70437;49.466;11.002;2023-07-16T08:57:57;98353.59;;;19.98;63.61
80976;BME280;70437;49.466;11.002;2023-07-16T09:00:26;98352.78;;;20.42;62.68
80976;BME280;70437;49.466;11.002;2023-07-16T09:02:55;98351.84;;;20.62;61.83
80976;BME280;70437;49.466;11.002;2023-07-16T09:05:23;98352.22;;;20.89;61.61
80976;BME280;70437;49.466;11.002;2023-07-16T09:08:06;98351.91;;;20.91;60.94
80976;BME280;70437;49.466;11.002;2023-07-16T09:10:35;98348.44;;;20.85;60.80
80976;BME280;70437;49.466;11.002;2023-07-16T09:13:04;98353.34;;;20.83;61.29
80976;BME280;70437;49.466;11.002;2023-07-16T09:15:35;98359.03;;;20.87;61.08
80976;BME280;70437;49.466;11.002;2023-07-16T09:18:05;98352.81;;;21.10;60.28
80976;BME280;70437;49.466;11.002;2023-07-16T09:20:33;98357.00;;;21.56;58.70
80976;BME280;70437;49.466;11.002;2023-07-16T09:23:01;98358.94;;;21.26;59.21
80976;BME280;70437;49.466;11.002;2023-07-16T09:25:29;98356.84;;;21.71;57.80
80976;BME280;70437;49.466;11.002;2023-07-16T09:28:01;98366.28;;;21.79;56.90
80976;BME280;70437;49.466;11.002;2023-07-16T09:30:33;98350.59;;;21.70;57.00
80976;BME280;70437;49.466;11.002;2023-07-16T09:33:21;98364.78;;;21.91;56.65
80976;BME280;70437;49.466;11.002;2023-07-16T09:35:50;98359.38;;;21.86;56.84
80976;BME280;70437;49.466;11.002;2023-07-16T09:38:18;98358.78;;;21.70;56.96
80976;BME280;70437;49.466;11.002;2023-07-16T09:40:46;98362.66;;;21.40;58.15
80976;BME280;70437;49.466;11.002;2023-07-16T09:43:17;98344.06;;;21.42;55.14
80976;BME280;70437;49.466;11.002;2023-07-16T09:45:46;98351.75;;;21.64;53.25
80976;BME280;70437;49.466;11.002;2023-07-16T09:48:21;98345.28;;;22.03;52.38
80976;BME280;70437;49.466;11.002;2023-07-16T09:50:54;98343.94;;;22.01;52.89
80976;BME280;70437;49.466;11.002;2023-07-16T09:53:23;98343.41;;;21.80;52.38
80976;BME280;70437;49.466;11.002;2023-07-16T09:55:55;98341.06;;;21.68;53.08
80976;BME280;70437;49.466;11.002;2023-07-16T09:58:26;98336.69;;;22.53;51.05
80976;BME280;70437;49.466;11.002;2023-07-16T10:00:56;98323.25;;;22.89;48.90
80976;BME280;70437;49.466;11.002;2023-07-16T10:03:25;98329.41;;;22.05;51.67
80976;BME280;70437;49.466;11.002;2023-07-16T10:05:53;98335.44;;;22.26;51.04
80976;BME280;70437;49.466;11.002;2023-07-16T10:08:20;98336.06;;;23.54;47.35
80976;BME280;70437;49.466;11.002;2023-07-16T10:10:54;98322.44;;;24.17;46.26
80976;BME280;70437;49.466;11.002;2023-07-16T10:13:26;98331.59;;;24.49;45.00
80976;BME280;70437;49.466;11.002;2023-07-16T10:15:57;98337.69;;;24.32;44.79
80976;BME280;70437;49.466;11.002;2023-07-16T10:18:29;98333.16;;;24.86;43.91
80976;BME280;70437;49.466;11.002;2023-07-16T10:21:06;98331.78;;;24.98;44.45
80976;BME280;70437;49.466;11.002;2023-07-16T10:23:43;98337.59;;;24.51;45.26
80976;BME280;70437;49.466;11.002;2023-07-16T10:26:13;98334.47;;;23.80;46.44
80976;BME280;70437;49.466;11.002;2023-07-16T10:28:47;98328.31;;;23.14;48.45
80976;BME280;70437;49.466;11.002;2023-07-16T10:31:22;98316.63;;;22.43;50.60
80976;BME280;70437;49.466;11.002;2023-07-16T10:34:03;98332.13;;;22.29;51.50
80976;BME280;70437;49.466;11.002;2023-07-16T10:36:40;98328.59;;;22.05;52.37
80976;BME280;70437;49.466;11.002;2023-07-16T10:39:08;98331.34;;;21.62;52.34
80976;BME280;70437;49.466;11.002;2023-07-16T10:41:36;98331.41;;;22.00;50.98
80976;BME280;70437;49.466;11.002;2023-07-16T10:44:08;98323.75;;;22.77;47.66
80976;BME280;70437;49.466;11.002;2023-07-16T10:46:37;98325.41;;;23.52;45.50
80976;BME280;70437;49.466;11.002;2023-07-16T10:49:04;98314.91;;;24.23;43.89
80976;BME280;70437;49.466;11.002;2023-07-16T10:51:32;98318.63;;;23.63;44.49
80976;BME280;70437;49.466;11.002;2023-07-16T10:54:02;98312.09;;;24.51;42.45
80976;BME280;70437;49.466;11.002;2023-07-16T10:56:38;98308.34;;;24.38;42.60
80976;BME280;70437;49.466;11.002;2023-07-16T10:59:10;98314.28;;;24.40;42.63
80976;BME280;70437;49.466;11.002;2023-07-16T11:01:39;98309.03;;;23.80;43.83
80976;BME280;70437;49.466;11.002;2023-07-16T11:04:07;98311.44;;;23.40;45.29
80976;BME280;70437;49.466;11.002;2023-07-16T11:06:36;98309.81;;;22.60;47.84
80976;BME280;70437;49.466;11.002;2023-07-16T11:09:09;98308.03;;;22.69;47.25
80976;BME280;70437;49.466;11.002;2023-07-16T11:11:40;98305.22;;;22.74;47.15
80976;BME280;70437;49.466;11.002;2023-07-16T11:14:08;98297.56;;;23.36;46.13
80976;BME280;70437;49.466;11.002;2023-07-16T11:16:39;98299.81;;;24.62;43.50
80976;BME280;70437;49.466;11.002;2023-07-16T11:19:07;98295.44;;;25.37;41.63
80976;BME280;70437;49.466;11.002;2023-07-16T11:21:37;98302.72;;;26.16;40.09
80976;BME280;70437;49.466;11.002;2023-07-16T11:24:12;98304.88;;;26.54;39.17
80976;BME280;70437;49.466;11.002;2023-07-16T11:27:00;98311.78;;;26.25;39.03
80976;BME280;70437;49.466;11.002;2023-07-16T11:29:34;98312.59;;;26.17;39.47
80976;BME280;70437;49.466;11.002;2023-07-16T11:32:03;98302.66;;;25.73;40.05
80976;BME280;70437;49.466;11.002;2023-07-16T11:34:31;98298.53;;;26.01;39.65
80976;BME280;70437;49.466;11.002;2023-07-16T11:37:09;98306.31;;;26.08;39.33
80976;BME280;70437;49.466;11.002;2023-07-16T11:39:37;98297.22;;;26.07;39.09
80976;BME280;70437;49.466;11.002;2023-07-16T11:42:06;98299.84;;;26.04;40.08
80976;BME280;70437;49.466;11.002;2023-07-16T11:44:35;98288.56;;;25.65;39.75
80976;BME280;70437;49.466;11.002;2023-07-16T11:47:04;98289.00;;;25.90;39.04
80976;BME280;70437;49.466;11.002;2023-07-16T11:49:42;98296.47;;;25.67;39.79
80976;BME280;70437;49.466;11.002;2023-07-16T11:52:10;98294.50;;;25.99;39.07
80976;BME280;70437;49.466;11.002;2023-07-16T11:54:39;98286.94;;;26.56;37.67
80976;BME280;70437;49.466;11.002;2023-07-16T11:57:07;98290.41;;;25.79;39.35
80976;BME280;70437;49.466;11.002;2023-07-16T11:59:35;98298.34;;;25.89;38.78
80976;BME280;70437;49.466;11.002;2023-07-16T12:02:05;98282.03;;;27.43;35.96
80976;BME280;70437;49.466;11.002;2023-07-16T12:04:36;98281.00;;;28.58;34.39
80976;BME280;70437;49.466;11.002;2023-07-16T12:07:05;98283.59;;;27.53;35.70
80976;BME280;70437;49.466;11.002;2023-07-16T12:09:33;98276.84;;;28.31;34.38
80976;BME280;70437;49.466;11.002;2023-07-16T12:12:02;98280.53;;;28.14;35.03
80976;BME280;70437;49.466;11.002;2023-07-16T12:14:30;98285.16;;;28.43;34.10
80976;BME280;70437;49.466;11.002;2023-07-16T12:16:59;98279.66;;;28.43;33.90
80976;BME280;70437;49.466;11.002;2023-07-16T12:19:27;98282.22;;;29.51;32.00
80976;BME280;70437;49.466;11.002;2023-07-16T12:21:55;98275.38;;;30.62;29.46
80976;BME280;70437;49.466;11.002;2023-07-16T12:24:24;98273.66;;;27.99;34.39
80976;BME280;70437;49.466;11.002;2023-07-16T12:26:53;98271.84;;;27.44;35.71
80976;BME280;70437;49.466;11.002;2023-07-16T12:29:20;98263.97;;;26.61;37.87
80976;BME280;70437;49.466;11.002;2023-07-16T12:31:48;98262.13;;;27.46;35.92
80976;BME280;70437;49.466;11.002;2023-07-16T12:34:18;98261.31;;;25.20;40.16
80976;BME280;70437;49.466;11.002;2023-07-16T12:36:48;98259.69;;;25.59;39.71
80976;BME280;70437;49.466;11.002;2023-07-16T12:39:16;98259.31;;;26.09;38.97
80976;BME280;70437;49.466;11.002;2023-07-16T12:41:45;98257.19;;;25.98;39.21
80976;BME280;70437;49.466;11.002;2023-07-16T12:44:12;98258.81;;;26.59;38.16
80976;BME280;70437;49.466;11.002;2023-07-16T12:46:40;98254.75;;;27.30;36.10
80976;BME280;70437;49.466;11.002;2023-07-16T12:49:09;98255.41;;;28.36;34.05
80976;BME280;70437;49.466;11.002;2023-07-16T12:51:39;98253.69;;;28.65;33.01
80976;BME280;70437;49.466;11.002;2023-07-16T12:54:08;98254.31;;;29.16;32.35
80976;BME280;70437;49.466;11.002;2023-07-16T12:56:36;98255.63;;;28.98;32.04
80976;BME280;70437;49.466;11.002;2023-07-16T12:59:05;98250.75;;;29.52;31.82
80976;BME280;70437;49.466;11.002;2023-07-16T13:01:33;98246.00;;;30.42;30.02
80976;BME280;70437;49.466;11.002;2023-07-16T13:04:01;98248.75;;;30.14;30.70
80976;BME280;70437;49.466;11.002;2023-07-16T13:06:32;98251.81;;;30.25;30.32
80976;BME280;70437;49.466;11.002;2023-07-16T13:09:00;98256.72;;;29.54;30.84
80976;BME280;70437;49.466;11.002;2023-07-16T13:11:27;98249.03;;;29.35;31.56
80976;BME280;70437;49.466;11.002;2023-07-16T13:13:55;98253.94;;;29.17;32.05